createdAt,value
2019-02-25T00:00:22.039Z,3.20
2019-02-25T00:02:52.674Z,3.10
2019-02-25T00:05:23.370Z,3.10
2019-02-25T00:07:54.098Z,3.10
2019-02-25T00:10:24.793Z,3.10
2019-02-25T00:12:55.569Z,3.10
2019-02-25T00:15:26.646Z,3.10
2019-02-25T00:17:57.410Z,3.00
2019-02-25T00:20:28.179Z,2.90
2019-02-25T00:22:58.894Z,2.80
2019-02-25T00:25:29.621Z,2.80
2019-02-25T00:28:00.308Z,2.90
2019-02-25T00:30:31.103Z,3.00
2019-02-25T00:33:01.830Z,3.00
2019-02-25T00:35:32.579Z,3.10
2019-02-25T00:38:03.331Z,3.10
2019-02-25T00:40:34.088Z,3.20
2019-02-25T00:43:04.785Z,3.10
2019-02-25T00:45:35.561Z,3.10
2019-02-25T00:48:06.309Z,3.20
2019-02-25T00:50:37.063Z,3.10
2019-02-25T00:53:07.820Z,3.10
2019-02-25T00:55:38.586Z,3.00
2019-02-25T00:58:09.331Z,2.90
2019-02-25T01:00:40.167Z,2.80
2019-02-25T01:03:10.926Z,2.70
2019-02-25T01:05:41.700Z,2.70
2019-02-25T01:08:12.508Z,2.70
2019-02-25T01:10:43.303Z,2.80
2019-02-25T01:13:14.080Z,2.80
2019-02-25T01:15:44.830Z,2.80
2019-02-25T01:18:15.609Z,2.90
2019-02-25T01:20:46.368Z,3.00
2019-02-25T01:23:17.156Z,3.00
2019-02-25T01:25:47.942Z,2.90
2019-02-25T01:28:20.429Z,2.80
2019-02-25T01:30:51.133Z,2.80
2019-02-25T01:33:21.899Z,2.70
2019-02-25T01:35:52.646Z,2.70
2019-02-25T01:38:23.352Z,2.80
2019-02-25T01:40:54.212Z,2.90
2019-02-25T01:43:24.935Z,2.90
2019-02-25T01:45:55.721Z,2.90
2019-02-25T01:48:26.469Z,2.80
2019-02-25T01:50:57.213Z,2.80
2019-02-25T01:53:27.969Z,2.80
2019-02-25T01:55:58.766Z,2.80
2019-02-25T01:58:29.599Z,3.00
2019-02-25T02:01:00.327Z,3.00
2019-02-25T02:03:31.139Z,3.00
2019-02-25T02:06:01.811Z,3.00
2019-02-25T02:08:32.609Z,3.10
2019-02-25T02:11:03.373Z,3.10
2019-02-25T02:13:34.169Z,3.20
2019-02-25T02:16:04.949Z,3.20
2019-02-25T02:18:35.741Z,3.30
2019-02-25T02:21:06.488Z,3.40
2019-02-25T02:23:37.274Z,3.40
2019-02-25T02:26:08.001Z,3.40
2019-02-25T02:28:38.758Z,3.40
2019-02-25T02:31:09.524Z,3.30
2019-02-25T02:33:40.576Z,3.30
2019-02-25T02:36:11.832Z,3.20
2019-02-25T02:38:42.624Z,3.10
2019-02-25T02:41:13.338Z,3.10
2019-02-25T02:43:44.114Z,3.00
2019-02-25T02:46:39.827Z,3.00
2019-02-25T02:49:10.643Z,2.90
2019-02-25T02:51:41.361Z,2.80
2019-02-25T02:54:12.194Z,2.70
2019-02-25T02:56:42.911Z,2.70
2019-02-25T02:59:13.647Z,2.60
2019-02-25T03:01:44.414Z,2.50
2019-02-25T03:04:15.159Z,2.40
2019-02-25T03:06:45.925Z,2.40
2019-02-25T03:09:16.733Z,2.30
2019-02-25T03:11:47.469Z,2.20
2019-02-25T03:14:18.256Z,2.20
2019-02-25T03:16:48.982Z,2.20
2019-02-25T03:19:19.809Z,2.20
2019-02-25T03:21:50.573Z,2.30
2019-02-25T03:24:21.299Z,2.30
2019-02-25T03:26:54.809Z,2.40
2019-02-25T03:29:25.553Z,2.50
2019-02-25T03:31:56.300Z,2.50
2019-02-25T03:34:27.084Z,2.40
2019-02-25T03:36:57.796Z,2.40
2019-02-25T03:39:28.578Z,2.50
2019-02-25T03:41:59.300Z,2.50
2019-02-25T03:44:30.031Z,2.50
2019-02-25T03:47:00.789Z,2.50
2019-02-25T03:49:31.542Z,2.40
2019-02-25T03:52:02.345Z,2.40
2019-02-25T03:54:33.031Z,2.40
2019-02-25T03:57:03.881Z,2.30
2019-02-25T03:59:34.678Z,2.20
2019-02-25T04:02:05.398Z,2.20
2019-02-25T04:04:36.220Z,2.10
2019-02-25T04:07:06.955Z,2.00
2019-02-25T04:09:37.702Z,1.90
2019-02-25T04:12:08.519Z,1.80
2019-02-25T04:14:39.260Z,1.80
2019-02-25T04:17:10.062Z,1.70
2019-02-25T04:19:40.858Z,1.80
2019-02-25T04:22:11.564Z,1.80
2019-02-25T04:24:42.282Z,1.90
2019-02-25T04:27:13.077Z,1.80
2019-02-25T04:29:43.772Z,1.80
2019-02-25T04:32:14.574Z,1.80
2019-02-25T04:34:45.313Z,1.90
2019-02-25T04:37:16.132Z,1.80
2019-02-25T04:39:46.816Z,1.60
2019-02-25T04:42:17.555Z,1.50
2019-02-25T04:44:48.272Z,1.40
2019-02-25T04:47:19.067Z,1.30
2019-02-25T04:49:49.792Z,1.30
2019-02-25T04:52:20.578Z,1.20
2019-02-25T04:54:51.325Z,1.10
2019-02-25T04:57:22.071Z,1.00
2019-02-25T04:59:52.867Z,0.90
2019-02-25T05:02:23.577Z,0.90
2019-02-25T05:04:54.284Z,0.90
2019-02-25T05:07:25.036Z,0.80
2019-02-25T05:09:55.753Z,0.80
2019-02-25T05:12:26.576Z,0.90
2019-02-25T05:14:57.273Z,1.00
2019-02-25T05:17:47.090Z,1.20
2019-02-25T05:20:17.822Z,1.30
2019-02-25T05:22:48.632Z,1.40
2019-02-25T05:25:19.395Z,1.40
2019-02-25T05:27:50.172Z,1.30
2019-02-25T05:30:20.948Z,1.20
2019-02-25T05:32:51.712Z,1.20
2019-02-25T05:35:22.561Z,1.10
2019-02-25T05:37:53.312Z,1.10
2019-02-25T05:40:24.042Z,1.00
2019-02-25T05:42:54.760Z,1.00
2019-02-25T05:45:25.513Z,1.10
2019-02-25T05:47:56.270Z,1.10
2019-02-25T05:50:26.983Z,1.00
2019-02-25T05:52:57.759Z,1.00
2019-02-25T05:55:28.519Z,1.10
2019-02-25T05:58:02.310Z,1.20
2019-02-25T06:00:33.202Z,1.20
2019-02-25T06:03:03.971Z,1.30
2019-02-25T06:05:34.695Z,1.50
2019-02-25T06:08:05.435Z,1.60
2019-02-25T06:10:36.197Z,1.70
2019-02-25T06:13:06.943Z,1.90
2019-02-25T06:15:37.711Z,1.90
2019-02-25T06:18:08.444Z,1.90
2019-02-25T06:20:39.202Z,1.80
2019-02-25T06:23:09.868Z,1.70
2019-02-25T06:25:40.587Z,1.50
2019-02-25T06:28:11.310Z,1.40
2019-02-25T06:30:42.107Z,1.30
2019-02-25T06:33:12.852Z,1.20
2019-02-25T06:35:43.570Z,1.10
2019-02-25T06:38:14.296Z,1.10
2019-02-25T06:40:45.081Z,1.20
2019-02-25T06:43:15.859Z,1.20
2019-02-25T06:45:46.564Z,1.10
2019-02-25T06:48:17.270Z,1.20
2019-02-25T06:50:48.035Z,1.50
2019-02-25T06:53:18.782Z,2.10
2019-02-25T06:55:49.521Z,2.50
2019-02-25T06:58:20.205Z,2.70
2019-02-25T07:01:02.896Z,2.80
2019-02-25T07:03:33.631Z,2.90
2019-02-25T07:06:21.471Z,3.00
2019-02-25T07:09:11.141Z,3.20
2019-02-25T07:12:00.802Z,3.50
2019-02-25T07:14:37.580Z,3.60
2019-02-25T07:17:25.610Z,3.60
2019-02-25T07:20:18.252Z,3.60
2019-02-25T07:23:14.375Z,3.60
2019-02-25T07:26:09.946Z,3.60
2019-02-25T07:28:59.618Z,3.60
2019-02-25T07:31:38.105Z,3.60
2019-02-25T07:34:14.854Z,3.70
2019-02-25T07:37:01.089Z,3.80
2019-02-25T07:39:49.724Z,4.10
2019-02-25T07:42:42.665Z,4.60
2019-02-25T07:45:36.487Z,5.60
2019-02-25T07:48:12.834Z,7.20
2019-02-25T07:50:57.214Z,8.90
2019-02-25T07:53:52.826Z,9.70
2019-02-25T07:56:40.256Z,9.90
2019-02-25T07:59:48.382Z,9.80
2019-02-25T08:02:31.230Z,9.50
2019-02-25T08:05:35.845Z,9.30
2019-02-25T08:08:28.487Z,9.10
2019-02-25T08:11:16.027Z,9.00
2019-02-25T08:13:53.635Z,8.90
2019-02-25T08:16:40.620Z,8.80
2019-02-25T08:19:28.952Z,8.90
2019-02-25T08:22:17.326Z,9.10
2019-02-25T08:25:01.497Z,9.20
2019-02-25T08:27:38.893Z,9.30
2019-02-25T08:30:34.705Z,9.50
2019-02-25T08:33:22.236Z,9.70
2019-02-25T08:37:02.668Z,10.10
2019-02-25T08:40:01.442Z,10.50
2019-02-25T08:42:42.460Z,11.40
2019-02-25T08:45:38.262Z,11.80
2019-02-25T08:48:36.856Z,12.10
2019-02-25T08:51:07.683Z,12.30
2019-02-25T08:53:38.367Z,12.60
2019-02-25T08:56:09.187Z,12.80
2019-02-25T08:58:39.932Z,12.90
2019-02-25T09:01:10.597Z,12.70
2019-02-25T09:03:41.389Z,13.30
2019-02-25T09:06:13.281Z,14.00
2019-02-25T09:08:43.986Z,14.30
2019-02-25T09:11:14.785Z,14.90
2019-02-25T09:13:45.441Z,15.60
2019-02-25T09:16:16.147Z,16.00
2019-02-25T09:18:46.900Z,16.00
2019-02-25T09:21:17.552Z,15.90
2019-02-25T09:23:48.284Z,15.80
2019-02-25T09:26:18.952Z,15.50
2019-02-25T09:28:49.697Z,15.00
2019-02-25T09:31:20.417Z,14.60
2019-02-25T09:33:51.091Z,14.20
2019-02-25T09:36:21.754Z,14.10
2019-02-25T09:38:52.363Z,14.50
2019-02-25T09:41:29.647Z,15.10
2019-02-25T09:43:55.451Z,15.80
2019-02-25T09:46:26.221Z,16.50
2019-02-25T09:48:56.909Z,16.90
2019-02-25T09:51:27.633Z,17.20
2019-02-25T09:53:58.331Z,17.50
2019-02-25T09:56:29.096Z,17.80
2019-02-25T09:58:59.811Z,18.00
2019-02-25T10:01:30.579Z,19.20
2019-02-25T10:04:01.295Z,19.90
2019-02-25T10:06:32.052Z,20.50
2019-02-25T10:09:02.898Z,21.20
2019-02-25T10:11:33.685Z,22.20
2019-02-25T10:14:05.510Z,23.20
2019-02-25T10:16:36.276Z,23.10
2019-02-25T10:19:06.993Z,23.40
2019-02-25T10:21:37.708Z,23.50
2019-02-25T10:24:08.345Z,22.90
2019-02-25T10:26:39.032Z,22.20
2019-02-25T10:29:09.769Z,21.90
2019-02-25T10:31:41.691Z,21.90
2019-02-25T10:34:12.812Z,21.60
2019-02-25T10:36:44.011Z,21.10
2019-02-25T10:39:17.757Z,20.70
2019-02-25T10:41:48.261Z,20.20
2019-02-25T10:44:19.057Z,19.40
2019-02-25T10:46:49.843Z,18.70
2019-02-25T10:49:20.458Z,18.30
2019-02-25T10:51:51.115Z,18.00
2019-02-25T10:54:23.305Z,17.40
2019-02-25T10:57:00.741Z,16.50
2019-02-25T10:59:32.693Z,15.60
2019-02-25T11:02:04.506Z,15.00
2019-02-25T11:04:35.201Z,14.60
2019-02-25T11:07:07.861Z,14.50
2019-02-25T11:09:57.467Z,14.40
2019-02-25T11:12:29.968Z,14.40
2019-02-25T11:15:00.672Z,14.50
2019-02-25T11:17:31.426Z,14.50
2019-02-25T11:20:03.692Z,14.00
2019-02-25T11:22:34.570Z,13.70
2019-02-25T11:25:06.016Z,13.50
2019-02-25T11:27:37.795Z,13.40
2019-02-25T11:30:11.956Z,13.50
2019-02-25T11:32:42.346Z,13.60
2019-02-25T11:35:13.762Z,13.60
2019-02-25T11:37:44.509Z,13.90
2019-02-25T11:40:15.278Z,14.00
2019-02-25T11:42:46.016Z,14.00
2019-02-25T11:45:16.907Z,14.10
2019-02-25T11:47:47.695Z,14.00
2019-02-25T11:50:18.531Z,14.10
2019-02-25T11:52:49.246Z,14.00
2019-02-25T11:55:21.867Z,14.00
2019-02-25T11:57:52.512Z,14.30
2019-02-25T12:00:23.295Z,15.00
2019-02-25T12:02:54.062Z,15.60
2019-02-25T12:05:24.829Z,16.60
2019-02-25T12:07:55.585Z,17.00
2019-02-25T12:10:26.371Z,16.90
2019-02-25T12:12:57.097Z,16.90
2019-02-25T12:15:29.186Z,17.20
2019-02-25T12:18:00.269Z,17.80
2019-02-25T12:20:31.146Z,18.10
2019-02-25T12:23:01.882Z,18.00
2019-02-25T12:25:32.642Z,17.80
2019-02-25T12:28:03.437Z,17.70
2019-02-25T12:30:34.270Z,18.00
2019-02-25T12:33:04.941Z,18.10
2019-02-25T12:35:35.663Z,18.10
2019-02-25T12:38:06.629Z,18.70
2019-02-25T12:40:37.395Z,19.30
2019-02-25T12:43:27.196Z,19.40
2019-02-25T12:45:57.942Z,19.50
2019-02-25T12:48:28.689Z,19.10
2019-02-25T12:50:59.455Z,18.80
2019-02-25T12:53:30.185Z,18.60
2019-02-25T12:56:00.927Z,18.60
2019-02-25T12:58:31.694Z,18.60
2019-02-25T13:01:14.312Z,18.90
2019-02-25T13:03:45.061Z,18.90
2019-02-25T13:06:15.796Z,19.20
2019-02-25T13:08:46.511Z,19.20
2019-02-25T13:11:17.297Z,19.30
2019-02-25T13:13:47.974Z,19.40
2019-02-25T13:16:18.770Z,19.90
2019-02-25T13:18:49.568Z,20.90
2019-02-25T13:21:21.212Z,21.90
2019-02-25T13:23:51.969Z,22.90
2019-02-25T13:26:22.715Z,24.00
2019-02-25T13:28:53.591Z,25.00
2019-02-25T13:31:24.577Z,25.60
2019-02-25T13:33:55.424Z,26.30
2019-02-25T13:36:26.110Z,26.60
2019-02-25T13:38:56.907Z,27.00
2019-02-25T13:41:27.612Z,27.00
2019-02-25T13:43:58.370Z,27.00
2019-02-25T13:46:29.106Z,26.80
2019-02-25T13:48:59.881Z,26.40
2019-02-25T13:51:30.557Z,26.50
2019-02-25T13:54:03.785Z,24.60
2019-02-25T13:56:35.451Z,23.20
2019-02-25T13:59:06.267Z,22.30
2019-02-25T14:01:37.093Z,22.00
2019-02-25T14:04:07.881Z,22.10
2019-02-25T14:06:38.636Z,21.70
2019-02-25T14:09:10.595Z,20.80
2019-02-25T14:11:41.369Z,19.40
2019-02-25T14:14:12.501Z,18.00
2019-02-25T14:16:43.222Z,17.00
2019-02-25T14:19:13.949Z,16.40
2019-02-25T14:21:44.814Z,16.00
2019-02-25T14:24:15.699Z,15.80
2019-02-25T14:26:46.418Z,15.60
2019-02-25T14:29:17.164Z,15.60
2019-02-25T14:31:48.917Z,15.50
2019-02-25T14:34:20.277Z,15.20
2019-02-25T14:36:52.466Z,15.00
2019-02-25T14:39:27.787Z,14.90
2019-02-25T14:41:59.335Z,14.80
2019-02-25T14:44:32.354Z,14.60
2019-02-25T14:47:03.407Z,14.50
2019-02-25T14:49:35.234Z,14.40
2019-02-25T14:52:06.824Z,14.30
2019-02-25T14:54:37.559Z,14.30
2019-02-25T14:57:08.277Z,14.20
2019-02-25T14:59:39.062Z,14.10
2019-02-25T15:02:11.124Z,14.00
2019-02-25T15:04:43.569Z,14.00
2019-02-25T15:07:15.279Z,13.90
2019-02-25T15:09:46.082Z,13.90
2019-02-25T15:12:16.846Z,13.80
2019-02-25T15:14:47.624Z,13.80
2019-02-25T15:17:18.418Z,13.70
2019-02-25T15:19:49.167Z,13.60
2019-02-25T15:22:20.001Z,13.50
2019-02-25T15:24:52.447Z,13.30
2019-02-25T15:27:23.114Z,13.20
2019-02-25T15:29:53.870Z,13.10
2019-02-25T15:32:24.611Z,13.20
2019-02-25T15:34:57.121Z,13.30
2019-02-25T15:37:27.673Z,13.20
2019-02-25T15:39:58.397Z,13.20
2019-02-25T15:42:30.085Z,13.10
2019-02-25T15:45:01.545Z,13.10
2019-02-25T15:47:32.275Z,13.00
2019-02-25T15:50:04.378Z,13.00
2019-02-25T15:52:39.916Z,13.00
2019-02-25T15:55:13.079Z,13.00
2019-02-25T15:57:42.932Z,13.00
2019-02-25T16:00:16.229Z,13.00
2019-02-25T16:02:48.037Z,13.20
2019-02-25T16:05:18.766Z,13.20
2019-02-25T16:07:51.498Z,13.10
2019-02-25T16:10:22.805Z,13.00
2019-02-25T16:12:55.699Z,12.90
2019-02-25T16:15:25.943Z,12.90
2019-02-25T16:17:56.728Z,12.80
2019-02-25T16:20:27.451Z,12.80
2019-02-25T16:23:00.342Z,13.10
2019-02-25T16:25:32.259Z,13.10
2019-02-25T16:28:03.265Z,13.20
2019-02-25T16:30:34.258Z,13.10
2019-02-25T16:33:07.285Z,12.90
2019-02-25T16:35:38.958Z,12.60
2019-02-25T16:38:09.778Z,12.40
2019-02-25T16:40:40.503Z,12.20
2019-02-25T16:43:12.659Z,12.10
2019-02-25T16:45:46.474Z,11.90
2019-02-25T16:48:17.241Z,11.80
2019-02-25T16:50:48.630Z,11.70
2019-02-25T16:53:20.210Z,11.60
2019-02-25T16:55:51.567Z,11.50
2019-02-25T16:58:22.479Z,11.40
2019-02-25T17:00:56.001Z,11.20
2019-02-25T17:03:25.663Z,11.00
2019-02-25T17:05:56.409Z,10.70
2019-02-25T17:08:28.272Z,10.50
2019-02-25T17:10:59.993Z,10.40
2019-02-25T17:13:32.647Z,10.30
2019-02-25T17:16:03.537Z,10.20
2019-02-25T17:18:34.292Z,10.20
2019-02-25T17:21:07.583Z,10.00
2019-02-25T17:23:38.829Z,9.90
2019-02-25T17:26:10.604Z,9.70
2019-02-25T17:28:41.968Z,9.60
2019-02-25T17:31:14.338Z,9.50
2019-02-25T17:33:46.821Z,9.40
2019-02-25T17:36:17.567Z,9.20
2019-02-25T17:38:50.153Z,9.20
2019-02-25T17:41:20.985Z,9.20
2019-02-25T17:43:51.771Z,9.10
2019-02-25T17:46:22.534Z,8.90
2019-02-25T17:48:53.249Z,8.80
2019-02-25T17:51:24.882Z,8.80
2019-02-25T17:53:56.283Z,8.90
2019-02-25T17:56:27.490Z,8.90
2019-02-25T17:59:01.022Z,9.00
2019-02-25T18:01:31.773Z,9.10
2019-02-25T18:04:04.496Z,9.00
2019-02-25T18:06:36.292Z,9.00
2019-02-25T18:09:08.604Z,8.90
2019-02-25T18:11:41.149Z,8.90
2019-02-25T18:14:13.382Z,8.80
2019-02-25T18:16:46.685Z,8.80
2019-02-25T18:19:18.635Z,8.80
2019-02-25T18:21:49.232Z,8.70
2019-02-25T18:24:19.922Z,8.60
2019-02-25T18:26:50.732Z,8.70
2019-02-25T18:29:22.668Z,8.90
2019-02-25T18:31:53.792Z,8.90
2019-02-25T18:34:24.529Z,8.90
2019-02-25T18:36:55.522Z,9.00
2019-02-25T18:39:27.412Z,9.00
2019-02-25T18:41:58.717Z,9.00
2019-02-25T18:44:29.593Z,8.90
2019-02-25T18:47:00.480Z,8.80
2019-02-25T18:49:32.630Z,8.70
2019-02-25T18:52:03.714Z,8.70
2019-02-25T18:54:34.530Z,8.70
2019-02-25T18:57:05.874Z,8.70
2019-02-25T18:59:37.835Z,8.70
2019-02-25T19:02:10.198Z,8.70
2019-02-25T19:04:41.785Z,8.70
2019-02-25T19:07:13.352Z,8.70
2019-02-25T19:09:45.249Z,8.70
2019-02-25T19:12:16.559Z,8.70
2019-02-25T19:14:51.088Z,8.60
2019-02-25T19:17:20.972Z,8.60
2019-02-25T19:19:52.247Z,8.40
2019-02-25T19:22:24.492Z,8.30
2019-02-25T19:24:55.290Z,8.20
2019-02-25T19:27:27.773Z,8.20
2019-02-25T19:30:00.242Z,8.00
2019-02-25T19:32:30.768Z,8.00
2019-02-25T19:35:04.027Z,8.10
2019-02-25T19:37:37.711Z,8.10
2019-02-25T19:40:12.128Z,8.10
2019-02-25T19:42:40.084Z,8.10
2019-02-25T19:45:11.368Z,8.10
2019-02-25T19:47:43.318Z,8.20
2019-02-25T19:50:14.196Z,8.30
2019-02-25T19:52:46.657Z,8.30
2019-02-25T19:55:20.255Z,8.30
2019-02-25T19:57:49.864Z,8.30
2019-02-25T20:00:27.717Z,8.40
2019-02-25T20:03:05.119Z,8.40
2019-02-25T20:05:33.100Z,8.40
2019-02-25T20:08:03.173Z,8.40
2019-02-25T20:10:34.239Z,8.40
2019-02-25T20:13:06.834Z,8.20
2019-02-25T20:15:40.028Z,8.10
2019-02-25T20:18:11.723Z,8.00
2019-02-25T20:21:03.980Z,8.10
2019-02-25T20:23:34.036Z,8.10
2019-02-25T20:26:04.794Z,8.00
2019-02-25T20:28:35.549Z,8.00
2019-02-25T20:31:08.354Z,8.00
2019-02-25T20:33:39.169Z,8.00
2019-02-25T20:36:09.959Z,7.90
2019-02-25T20:38:40.665Z,7.90
2019-02-25T20:41:11.652Z,7.80
2019-02-25T20:43:44.485Z,7.60
2019-02-25T20:46:14.735Z,7.40
2019-02-25T20:48:48.386Z,7.40
2019-02-25T20:51:17.819Z,7.30
2019-02-25T20:53:50.696Z,7.30
2019-02-25T20:56:22.320Z,7.30
2019-02-25T20:58:53.528Z,7.30
2019-02-25T21:01:24.294Z,7.40
2019-02-25T21:03:56.779Z,7.40
2019-02-25T21:06:27.358Z,7.40
2019-02-25T21:08:58.104Z,7.70
2019-02-25T21:11:28.840Z,7.70
2019-02-25T21:13:59.578Z,7.70
2019-02-25T21:16:32.181Z,7.70
2019-02-25T21:19:02.640Z,7.70
2019-02-25T21:21:35.141Z,7.80
2019-02-25T21:24:08.852Z,7.80
2019-02-25T21:26:40.822Z,7.70
2019-02-25T21:29:11.437Z,7.70
2019-02-25T21:31:43.176Z,7.90
2019-02-25T21:34:17.775Z,8.20
2019-02-25T21:36:46.931Z,8.40
2019-02-25T21:39:19.175Z,8.40
2019-02-25T21:41:50.059Z,8.20
2019-02-25T21:44:21.320Z,8.00
2019-02-25T21:46:54.033Z,7.80
2019-02-25T21:49:27.230Z,7.60
2019-02-25T21:51:57.622Z,7.50
2019-02-25T21:54:28.363Z,7.50
2019-02-25T21:57:01.045Z,7.50
2019-02-25T21:59:32.322Z,7.60
2019-02-25T22:02:03.895Z,7.60
2019-02-25T22:04:38.533Z,7.60
2019-02-25T22:07:07.016Z,7.60
2019-02-25T22:09:41.342Z,7.60
2019-02-25T22:12:10.171Z,7.60
2019-02-25T22:14:41.242Z,7.50
2019-02-25T22:17:15.048Z,7.40
2019-02-25T22:19:46.375Z,7.30
2019-02-25T22:22:19.353Z,7.20
2019-02-25T22:24:50.372Z,7.10
2019-02-25T22:27:22.912Z,7.00
2019-02-25T22:29:53.526Z,7.00
2019-02-25T22:32:24.283Z,6.90
2019-02-25T22:34:56.089Z,7.00
2019-02-25T22:37:29.162Z,7.10
2019-02-25T22:39:59.751Z,7.30
2019-02-25T22:42:31.704Z,7.30
2019-02-25T22:45:02.869Z,7.20
2019-02-25T22:47:33.572Z,7.20
2019-02-25T22:50:06.499Z,7.10
2019-02-25T22:52:37.393Z,7.20
2019-02-25T22:55:10.131Z,7.40
2019-02-25T22:57:43.321Z,7.60
2019-02-25T23:00:27.369Z,7.80
2019-02-25T23:02:59.205Z,7.60
2019-02-25T23:05:30.154Z,7.30
2019-02-25T23:08:00.837Z,7.00
2019-02-25T23:10:31.564Z,6.80
2019-02-25T23:13:02.293Z,6.80
2019-02-25T23:15:33.368Z,6.80
2019-02-25T23:18:05.606Z,6.90
2019-02-25T23:20:36.610Z,6.80
2019-02-25T23:23:07.379Z,6.70
2019-02-25T23:25:38.053Z,6.70
2019-02-25T23:28:08.839Z,6.70
2019-02-25T23:30:39.793Z,6.60
2019-02-25T23:33:12.091Z,6.60
2019-02-25T23:35:44.858Z,6.60
2019-02-25T23:38:15.408Z,6.60
2019-02-25T23:40:47.168Z,6.50
2019-02-25T23:43:18.939Z,6.50
2019-02-25T23:45:49.678Z,6.40
2019-02-25T23:48:20.413Z,6.30
2019-02-25T23:50:53.182Z,6.30
2019-02-25T23:53:24.060Z,6.30
2019-02-25T23:55:56.587Z,6.40
2019-02-25T23:58:28.250Z,6.50
